Time;durP1;ratioP1;P1;durP2;ratioP2;P2;SDS_P1;SDS_P2;PMS_P1;PMS_P2;Temp;Humidity;BMP_temperature;BMP_pressure;BME280_temperature;BME280_humidity;BME280_pressure;Samples;Min_cycle;Max_cycle;Signal;HPM_P1;HPM_P2
2022/10/16 00:00:38;;;;;;;6.53;1.90;;;;;;;19.12;66.79;97369.28;5063666;28;20218;-75
2022/10/16 00:03:04;;;;;;;8.63;2.20;;;;;;;19.10;66.92;97366.84;5055199;28;20187;-72
2022/10/16 00:05:30;;;;;;;4.10;2.00;;;;;;;19.12;67.03;97361.31;5051190;28;21026;-74
2022/10/16 00:07:55;;;;;;;6.87;2.00;;;;;;;19.09;67.18;97362.53;5050435;28;20182;-74
2022/10/16 00:10:21;;;;;;;5.80;1.80;;;;;;;19.07;67.34;97361.91;5051497;28;20183;-74
2022/10/16 00:12:46;;;;;;;3.33;1.73;;;;;;;19.07;67.28;97361.91;5051803;28;20697;-74
2022/10/16 00:15:12;;;;;;;4.87;2.43;;;;;;;19.05;67.23;97363.97;5060058;28;20230;-75
2022/10/16 00:17:37;;;;;;;5.37;2.13;;;;;;;18.99;67.29;97364.78;5050707;28;20815;-73
2022/10/16 00:20:03;;;;;;;2.60;2.17;;;;;;;18.98;67.36;97363.16;5051491;28;20186;-73
2022/10/16 00:22:29;;;;;;;2.87;2.50;;;;;;;18.92;67.45;97355.94;5051195;28;20233;-74
2022/10/16 00:24:54;;;;;;;5.43;2.60;;;;;;;18.93;67.58;97355.75;5051796;28;20438;-72
2022/10/16 00:27:20;;;;;;;4.10;2.10;;;;;;;18.92;67.32;97364.75;5049041;28;20614;-74
2022/10/16 00:29:49;;;;;;;3.10;2.23;;;;;;;18.90;67.57;97365.97;5059776;28;20187;-74
2022/10/16 00:32:15;;;;;;;4.47;2.00;;;;;;;18.90;67.48;97365.97;5051219;28;20198;-75
2022/10/16 00:34:40;;;;;;;2.87;1.93;;;;;;;18.91;67.48;97364.91;5051568;28;20442;-74
2022/10/16 00:37:06;;;;;;;5.57;1.67;;;;;;;18.90;67.55;97360.66;5050333;28;20753;-74
2022/10/16 00:39:31;;;;;;;16.57;8.33;;;;;;;18.89;67.31;97362.47;5051146;28;20183;-73
2022/10/16 00:41:57;;;;;;;7.13;5.70;;;;;;;18.87;67.19;97362.69;5056607;28;20207;-74
2022/10/16 00:44:46;;;;;;;3.67;3.23;;;;;;;18.85;67.34;97364.72;5050587;28;20288;-73
2022/10/16 00:47:36;;;;;;;5.23;1.73;;;;;;;18.86;67.25;97366.38;5045864;28;20233;-73
2022/10/16 00:50:11;;;;;;;12.27;2.20;;;;;;;18.87;67.00;97361.84;5044994;28;20541;-73
2022/10/16 00:52:39;;;;;;;3.60;1.80;;;;;;;18.87;66.97;97345.94;5049378;28;20950;-74
2022/10/16 00:55:06;;;;;;;3.80;2.10;;;;;;;18.87;67.06;97357.38;5049776;28;20453;-71
2022/10/16 00:57:31;;;;;;;4.73;2.10;;;;;;;18.89;67.06;97351.88;5048991;28;20457;-73
2022/10/16 00:59:58;;;;;;;5.23;1.87;;;;;;;18.84;67.22;97371.06;5051189;28;20464;-75
2022/10/16 01:02:23;;;;;;;2.13;1.77;;;;;;;18.84;67.32;97373.72;5048413;28;20202;-74
2022/10/16 01:04:50;;;;;;;4.80;2.30;;;;;;;18.83;67.45;97382.69;5049629;28;20453;-74
2022/10/16 01:07:57;;;;;;;3.73;1.97;;;;;;;18.81;67.41;97383.91;5056831;28;20178;-75
2022/10/16 01:10:38;;;;;;;4.23;2.10;;;;;;;18.78;67.55;97385.13;5032956;28;20413;-73
2022/10/16 01:13:21;;;;;;;2.73;1.70;;;;;;;18.78;67.42;97381.66;5049995;28;20448;-74
2022/10/16 01:16:18;;;;;;;2.70;1.80;;;;;;;18.70;67.80;97378.19;5044975;28;20449;-74
2022/10/16 01:18:46;;;;;;;2.87;1.63;;;;;;;18.73;67.60;97390.22;5040215;28;20524;-75
2022/10/16 01:21:26;;;;;;;4.90;1.50;;;;;;;18.70;67.78;97387.97;5056943;28;20483;-73
2022/10/16 01:24:25;;;;;;;4.17;1.73;;;;;;;18.65;67.95;97385.09;5049407;28;20790;-74
2022/10/16 01:27:05;;;;;;;4.13;1.60;;;;;;;18.68;67.65;97376.72;5044939;28;20563;-74
2022/10/16 01:29:39;;;;;;;3.20;1.80;;;;;;;18.68;67.72;97376.72;5043224;28;20422;-74
2022/10/16 01:32:41;;;;;;;6.70;1.70;;;;;;;18.70;67.66;97378.19;5049411;28;20636;-74
2022/10/16 01:35:11;;;;;;;1.67;1.57;;;;;;;18.71;67.46;97378.97;5050044;28;20465;-73
2022/10/16 01:37:44;;;;;;;3.00;1.97;;;;;;;18.66;67.64;97374.28;5050238;28;20457;-75
2022/10/16 01:40:12;;;;;;;3.70;2.00;;;;;;;18.61;67.48;97370.59;5033414;28;20882;-74
2022/10/16 01:42:43;;;;;;;3.97;2.00;;;;;;;18.68;67.59;97379.38;5055307;28;21067;-74
2022/10/16 01:45:12;;;;;;;2.20;1.53;;;;;;;18.70;67.48;97364.06;5048760;28;20485;-74
2022/10/16 01:47:38;;;;;;;2.30;1.70;;;;;;;18.72;67.58;97368.16;5048383;28;20426;-74
2022/10/16 01:50:05;;;;;;;3.53;1.97;;;;;;;18.71;67.38;97368.38;5049720;28;20479;-73
2022/10/16 01:52:32;;;;;;;2.80;1.80;;;;;;;18.71;67.47;97368.38;5046662;28;20924;-74
2022/10/16 01:54:58;;;;;;;4.07;2.33;;;;;;;18.71;67.48;97358.56;5047822;28;20944;-74
2022/10/16 01:57:25;;;;;;;6.23;2.17;;;;;;;18.69;67.45;97365.09;5047310;28;21144;-73
2022/10/16 01:59:54;;;;;;;3.73;1.87;;;;;;;18.67;67.66;97361.81;5050238;28;21070;-74
2022/10/16 02:02:22;;;;;;;4.27;2.33;;;;;;;18.66;67.65;97365.47;5049257;28;20571;-74
2022/10/16 02:04:51;;;;;;;2.80;2.00;;;;;;;18.65;67.51;97361.22;5055263;28;20959;-74
2022/10/16 02:07:16;;;;;;;2.30;2.07;;;;;;;18.64;67.82;97359.59;5051083;28;20432;-74
2022/10/16 02:09:42;;;;;;;4.33;2.20;;;;;;;18.64;67.68;97354.28;5050055;28;20433;-74
2022/10/16 02:12:14;;;;;;;2.60;2.13;;;;;;;18.61;67.97;97354.66;5048312;28;20187;-75
2022/10/16 02:14:40;;;;;;;4.53;2.47;;;;;;;18.60;67.79;97366.28;5049460;28;20189;-73
2022/10/16 02:17:15;;;;;;;5.63;2.23;;;;;;;18.63;68.03;97369.38;5049137;28;20948;-74
2022/10/16 02:19:41;;;;;;;3.37;1.70;;;;;;;18.62;67.70;97366.91;5050152;28;20202;-74
2022/10/16 02:22:08;;;;;;;9.43;2.30;;;;;;;18.64;67.95;97380.81;5047996;28;20445;-73
2022/10/16 02:24:52;;;;;;;6.00;2.30;;;;;;;18.60;67.84;97376.91;5032132;28;20434;-74
2022/10/16 02:27:21;;;;;;;6.10;2.00;;;;;;;18.62;67.93;97380.19;5047958;28;20532;-74
2022/10/16 02:29:50;;;;;;;4.33;1.80;;;;;;;18.60;68.02;97371.59;5050212;28;20425;-74
2022/10/16 02:32:17;;;;;;;5.53;2.23;;;;;;;18.55;68.01;97374.88;5051518;28;20425;-74
2022/10/16 02:34:44;;;;;;;6.70;1.90;;;;;;;18.60;67.85;97366.28;5054467;28;20539;-75
2022/10/16 02:37:11;;;;;;;4.80;1.60;;;;;;;18.61;68.09;97352.00;5052633;28;20453;-74
2022/10/16 02:39:37;;;;;;;1.83;1.73;;;;;;;18.58;67.99;97354.03;5054560;28;20429;-73
2022/10/16 02:42:02;;;;;;;9.87;2.23;;;;;;;18.60;68.09;97371.59;5019535;28;20525;-74
2022/10/16 02:44:28;;;;;;;2.13;1.77;;;;;;;18.60;68.01;97363.66;5053424;28;20898;-73
2022/10/16 02:46:53;;;;;;;3.57;1.90;;;;;;;18.60;68.09;97361.00;5054380;28;20248;-74
2022/10/16 02:49:19;;;;;;;3.47;2.00;;;;;;;18.60;68.01;97374.25;5019296;28;20179;-75
2022/10/16 02:51:44;;;;;;;5.30;2.30;;;;;;;18.60;68.03;97376.91;5046331;28;20183;-74
2022/10/16 02:54:10;;;;;;;6.90;1.67;;;;;;;18.58;68.19;97375.28;5052166;28;20269;-74
2022/10/16 02:56:36;;;;;;;3.10;1.87;;;;;;;18.60;68.10;97383.03;5053065;28;20265;-75
2022/10/16 02:59:01;;;;;;;8.03;1.90;;;;;;;18.61;67.94;97386.50;5035846;28;20265;-74
2022/10/16 03:01:27;;;;;;;3.77;2.00;;;;;;;18.59;68.03;97389.34;5035300;28;20190;-73
2022/10/16 03:03:52;;;;;;;2.13;1.70;;;;;;;18.59;68.61;97386.69;5052390;28;20210;-74
2022/10/16 03:06:18;;;;;;;9.37;2.07;;;;;;;18.61;68.37;97389.16;5034470;28;20206;-74
2022/10/16 03:08:43;;;;;;;1.90;1.77;;;;;;;18.58;68.40;97380.59;5051384;28;20209;-74
2022/10/16 03:11:08;;;;;;;1.93;1.73;;;;;;;18.56;68.38;97387.91;5028445;28;20183;-73
2022/10/16 03:13:34;;;;;;;6.47;1.83;;;;;;;18.53;68.58;97376.91;5059018;28;20175;-75
2022/10/16 03:15:59;;;;;;;4.13;1.70;;;;;;;18.53;68.62;97376.91;5052978;28;20226;-74
2022/10/16 03:18:25;;;;;;;3.67;1.43;;;;;;;18.55;68.57;97378.31;5017779;28;20386;-74
2022/10/16 03:20:50;;;;;;;2.93;1.37;;;;;;;18.54;68.60;97381.19;5059265;28;20698;-73
2022/10/16 03:23:16;;;;;;;5.60;1.77;;;;;;;18.54;68.49;97384.63;5066381;28;20517;-75
2022/10/16 03:25:41;;;;;;;2.60;1.70;;;;;;;18.53;68.48;97379.53;5052101;28;20195;-73
2022/10/16 03:28:07;;;;;;;4.00;1.63;;;;;;;18.48;68.47;97377.50;5052333;28;20301;-74
2022/10/16 03:30:32;;;;;;;15.13;1.57;;;;;;;18.49;68.30;97375.66;5053174;28;20179;-74
2022/10/16 03:32:58;;;;;;;4.30;1.80;;;;;;;18.45;68.51;97380.53;5052699;28;20183;-74
2022/10/16 03:35:24;;;;;;;1.37;1.27;;;;;;;18.46;68.29;97382.19;5053043;28;20271;-74
2022/10/16 03:37:50;;;;;;;4.40;1.60;;;;;;;18.44;68.52;97384.19;5034508;28;20203;-73
2022/10/16 03:40:16;;;;;;;4.53;1.50;;;;;;;18.44;68.46;97389.50;5053026;28;20785;-74
2022/10/16 03:42:44;;;;;;;2.10;1.60;;;;;;;18.41;68.67;97379.28;5051942;28;20436;-75
2022/10/16 03:45:10;;;;;;;7.90;1.60;;;;;;;18.40;68.61;97377.66;5051117;28;20442;-74
2022/10/16 03:47:36;;;;;;;3.57;1.50;;;;;;;18.40;68.46;97375.00;5051160;28;20512;-73
2022/10/16 03:50:02;;;;;;;2.10;1.90;;;;;;;18.40;68.56;97382.94;5060584;28;20520;-74
2022/10/16 03:52:27;;;;;;;5.93;2.07;;;;;;;18.44;69.01;97389.50;5052388;28;20237;-72
2022/10/16 03:54:53;;;;;;;2.63;1.53;;;;;;;18.44;68.43;97399.31;5052323;28;20288;-74
2022/10/16 03:57:18;;;;;;;4.73;1.50;;;;;;;18.43;68.32;97393.19;5051097;28;20203;-75
2022/10/16 03:59:44;;;;;;;1.40;1.30;;;;;;;18.41;68.37;97384.59;5060711;28;20195;-74
2022/10/16 04:02:09;;;;;;;1.90;1.50;;;;;;;18.44;68.35;97388.72;5047678;28;20191;-73
2022/10/16 04:04:35;;;;;;;3.90;1.50;;;;;;;18.45;68.63;97380.53;5051587;28;20187;-75
2022/10/16 04:07:00;;;;;;;1.93;1.20;;;;;;;18.41;68.34;97379.28;5051162;28;20183;-74
2022/10/16 04:09:26;;;;;;;3.37;1.50;;;;;;;18.39;68.07;97391.97;5059074;28;20187;-73
2022/10/16 04:11:51;;;;;;;17.73;1.97;;;;;;;18.40;68.31;97393.56;5056390;28;20677;-74
2022/10/16 04:14:17;;;;;;;1.60;1.30;;;;;;;18.39;68.17;97392.75;5051769;28;20202;-74
2022/10/16 04:16:42;;;;;;;2.90;1.60;;;;;;;18.40;68.18;97390.91;5055133;28;20891;-72
2022/10/16 04:19:10;;;;;;;2.47;1.50;;;;;;;18.41;68.14;97387.25;5053546;28;20333;-73
2022/10/16 04:21:35;;;;;;;2.17;1.77;;;;;;;18.44;68.00;97389.50;5061025;28;20195;-74
2022/10/16 04:24:01;;;;;;;2.63;1.37;;;;;;;18.39;67.99;97391.97;5058911;28;20436;-74
2022/10/16 04:26:26;;;;;;;3.37;1.77;;;;;;;18.38;68.07;97385.00;5051071;28;20286;-74
2022/10/16 04:28:52;;;;;;;4.90;1.40;;;;;;;18.41;68.08;97387.25;5045584;28;20280;-74
2022/10/16 04:31:17;;;;;;;7.50;1.60;;;;;;;18.44;68.06;97388.72;5051286;28;20282;-73
2022/10/16 04:33:43;;;;;;;6.20;1.50;;;;;;;18.42;68.13;97391.53;5051582;28;20190;-73
2022/10/16 04:36:08;;;;;;;4.23;2.30;;;;;;;18.42;68.03;97391.53;5051194;28;20219;-74
2022/10/16 04:38:34;;;;;;;2.43;1.73;;;;;;;18.43;67.95;97390.53;5045990;28;20253;-73
2022/10/16 04:41:00;;;;;;;7.17;1.73;;;;;;;18.41;67.80;97395.19;5059918;28;20273;-74
2022/10/16 04:43:25;;;;;;;1.50;1.40;;;;;;;18.38;67.94;97398.28;5051019;28;20183;-72
2022/10/16 04:45:51;;;;;;;4.33;1.70;;;;;;;18.42;67.92;97404.81;5051121;28;20613;-73
2022/10/16 04:48:17;;;;;;;8.60;2.00;;;;;;;18.40;67.85;97405.00;5058549;28;20186;-73
2022/10/16 04:50:43;;;;;;;5.90;1.83;;;;;;;18.39;67.92;97406.03;5051326;28;20839;-74
2022/10/16 04:53:08;;;;;;;3.80;1.60;;;;;;;18.39;67.91;97414.00;5049925;28;20430;-74
2022/10/16 04:55:34;;;;;;;4.60;1.70;;;;;;;18.39;68.26;97411.34;5049215;28;20206;-74
2022/10/16 04:57:59;;;;;;;3.60;1.53;;;;;;;18.40;68.26;97414.78;4990384;28;20206;-74
2022/10/16 05:00:25;;;;;;;6.40;2.40;;;;;;;18.40;68.36;97417.44;5032697;28;20685;-73
2022/10/16 05:02:51;;;;;;;4.60;1.53;;;;;;;18.39;68.16;97421.13;5033439;28;20222;-73
2022/10/16 05:05:18;;;;;;;4.00;1.50;;;;;;;18.38;68.38;97427.47;5050942;28;20276;-73
2022/10/16 05:07:44;;;;;;;2.10;1.63;;;;;;;18.35;68.46;97433.16;5055081;28;20179;-72
2022/10/16 05:10:09;;;;;;;2.40;1.93;;;;;;;18.30;68.71;97425.78;5051602;28;20432;-75
2022/10/16 05:12:35;;;;;;;2.93;1.40;;;;;;;18.30;68.97;97427.59;5056979;28;20273;-75
2022/10/16 05:15:00;;;;;;;1.97;1.70;;;;;;;18.30;69.01;97433.75;5070130;28;20238;-74
2022/10/16 05:17:26;;;;;;;6.03;1.77;;;;;;;18.24;69.08;97430.03;5066837;28;20839;-73
2022/10/16 05:19:51;;;;;;;3.50;1.47;;;;;;;18.26;69.09;97432.50;5062264;28;20179;-74
2022/10/16 05:22:17;;;;;;;5.43;2.60;;;;;;;18.21;69.04;97426.97;5060829;28;20705;-72
2022/10/16 05:24:43;;;;;;;5.70;2.30;;;;;;;18.19;69.52;97419.19;5070817;28;20196;-74
2022/10/16 05:27:08;;;;;;;5.30;2.50;;;;;;;18.16;69.15;97424.88;5068672;28;20270;-74
2022/10/16 05:29:35;;;;;;;2.93;2.30;;;;;;;18.13;69.57;97414.69;5070627;28;20191;-75
2022/10/16 05:32:00;;;;;;;7.33;1.90;;;;;;;18.13;69.54;97420.00;5070750;28;20311;-76
2022/10/16 05:34:25;;;;;;;7.30;2.10;;;;;;;18.16;69.46;97427.53;5068651;28;20534;-74
2022/10/16 05:36:51;;;;;;;7.60;2.40;;;;;;;18.09;69.52;97430.13;5069181;28;20746;-74
2022/10/16 05:39:16;;;;;;;3.07;2.27;;;;;;;18.08;69.60;97433.00;5068919;28;20650;-73
2022/10/16 05:41:42;;;;;;;8.07;4.10;;;;;;;18.07;69.50;97439.31;5063368;28;20198;-74
2022/10/16 05:44:08;;;;;;;5.63;3.00;;;;;;;18.07;69.32;97447.28;5068964;28;20193;-73
2022/10/16 05:46:33;;;;;;;7.30;2.53;;;;;;;18.08;69.27;97433.81;5069961;28;21176;-74
2022/10/16 05:48:59;;;;;;;4.30;2.40;;;;;;;18.06;69.34;97435.84;5070354;28;20182;-74
2022/10/16 05:51:24;;;;;;;3.80;2.17;;;;;;;18.09;69.25;97429.34;5065636;28;20276;-74
2022/10/16 05:53:50;;;;;;;7.03;2.00;;;;;;;18.11;69.31;97438.72;5068350;28;20224;-74
2022/10/16 05:56:15;;;;;;;6.77;1.73;;;;;;;18.15;69.28;97446.31;5068464;28;20259;-73
2022/10/16 05:58:41;;;;;;;2.50;1.63;;;;;;;18.17;69.41;97447.72;5061491;28;20645;-75
2022/10/16 06:01:17;;;;;;;3.57;1.53;;;;;;;18.20;69.07;97452.66;5070213;28;20190;-74
2022/10/16 06:03:43;;;;;;;2.07;1.53;;;;;;;18.23;68.85;97454.94;5070149;28;20196;-73
2022/10/16 06:06:13;;;;;;;5.73;1.67;;;;;;;18.25;68.74;97454.72;5072427;28;20440;-74
2022/10/16 06:08:39;;;;;;;3.20;1.67;;;;;;;18.27;68.60;97458.81;5073463;28;20181;-74
2022/10/16 06:11:08;;;;;;;4.10;2.07;;;;;;;18.31;68.50;97464.56;5072680;28;20862;-73
2022/10/16 06:13:34;;;;;;;8.07;2.03;;;;;;;18.29;68.28;97466.59;5072690;28;20455;-74
2022/10/16 06:16:01;;;;;;;9.03;2.13;;;;;;;18.27;68.78;97466.78;5074127;28;20963;-74
2022/10/16 06:18:27;;;;;;;8.33;2.10;;;;;;;18.28;68.77;97459.66;5067848;28;20302;-75
2022/10/16 06:20:53;;;;;;;4.70;2.27;;;;;;;18.37;68.95;97474.38;5062992;28;20522;-75
2022/10/16 06:23:18;;;;;;;3.87;1.80;;;;;;;18.39;68.87;97469.69;5072500;28;20428;-74
2022/10/16 06:25:44;;;;;;;4.50;2.13;;;;;;;18.41;68.72;97469.50;5064188;28;20207;-75
2022/10/16 06:28:09;;;;;;;5.83;2.10;;;;;;;18.42;68.79;97476.44;5070370;28;20186;-72
2022/10/16 06:30:35;;;;;;;9.63;2.27;;;;;;;18.42;69.03;97477.28;5064838;28;20577;-74
2022/10/16 06:33:00;;;;;;;5.60;2.20;;;;;;;18.43;68.96;97462.16;5073705;28;20213;-74
2022/10/16 06:35:26;;;;;;;3.13;1.80;;;;;;;18.45;68.94;97465.44;5073746;28;20339;-74
2022/10/16 06:37:53;;;;;;;3.83;1.70;;;;;;;18.52;68.87;97466.31;5071938;28;20206;-74
2022/10/16 06:40:18;;;;;;;4.33;2.20;;;;;;;18.56;68.55;97472.84;5072558;28;20556;-73
2022/10/16 06:42:44;;;;;;;4.17;2.03;;;;;;;18.61;68.55;97482.88;5068060;28;20489;-73
2022/10/16 06:45:09;;;;;;;12.50;2.53;;;;;;;18.66;68.15;97487.56;5063674;28;20252;-74
2022/10/16 06:47:35;;;;;;;4.33;2.43;;;;;;;18.72;68.15;97489.47;5059868;28;20178;-75
2022/10/16 06:50:00;;;;;;;9.07;2.23;;;;;;;18.77;67.80;97492.34;5068606;28;20702;-74
2022/10/16 06:52:28;;;;;;;4.90;2.43;;;;;;;18.80;67.64;97489.28;5073336;28;20204;-74
2022/10/16 06:54:53;;;;;;;7.37;1.83;;;;;;;18.82;67.63;97492.56;5073567;28;20209;-74
2022/10/16 06:57:18;;;;;;;9.63;2.40;;;;;;;18.84;67.63;97505.63;5072933;28;21056;-72
2022/10/16 06:59:44;;;;;;;5.23;2.07;;;;;;;18.85;67.39;97497.47;5073851;28;20645;-74
2022/10/16 07:02:09;;;;;;;2.10;1.90;;;;;;;18.87;67.48;97498.09;5073687;28;20210;-73
2022/10/16 07:04:36;;;;;;;1.90;1.77;;;;;;;18.88;67.93;97505.06;5073621;28;20186;-74
2022/10/16 07:07:01;;;;;;;4.17;2.00;;;;;;;18.93;67.95;97511.59;5071809;28;20178;-74
2022/10/16 07:09:26;;;;;;;2.10;1.90;;;;;;;18.98;68.29;97522.47;5072220;28;20429;-74
2022/10/16 07:11:52;;;;;;;2.33;1.80;;;;;;;19.02;68.27;97521.06;5073699;28;20210;-74
2022/10/16 07:14:19;;;;;;;2.20;2.00;;;;;;;19.03;68.09;97525.34;5073395;28;20269;-74
2022/10/16 07:16:45;;;;;;;8.10;2.67;;;;;;;19.05;68.24;97523.31;5070147;28;20205;-75
2022/10/16 07:19:13;;;;;;;3.50;2.37;;;;;;;19.02;68.15;97540.47;5073258;28;20440;-73
2022/10/16 07:21:38;;;;;;;7.33;2.17;;;;;;;19.03;68.36;97536.81;5060610;28;20186;-75
2022/10/16 07:24:12;;;;;;;2.20;2.00;;;;;;;19.04;68.36;97548.22;5072020;28;20428;-73
2022/10/16 07:26:39;;;;;;;2.33;2.13;;;;;;;19.05;68.36;97549.88;5070140;28;20210;-75
2022/10/16 07:29:06;;;;;;;8.03;2.50;;;;;;;19.06;68.35;97558.69;5071465;28;20919;-74
2022/10/16 07:31:32;;;;;;;2.23;2.03;;;;;;;19.04;68.02;97561.50;5073244;28;20433;-73
2022/10/16 07:33:58;;;;;;;4.23;2.00;;;;;;;19.05;67.98;97565.81;5072999;28;20435;-74
2022/10/16 07:36:24;;;;;;;4.07;2.40;;;;;;;19.07;67.90;97560.31;5070581;28;20818;-74
2022/10/16 07:38:49;;;;;;;9.50;2.53;;;;;;;19.10;67.99;97563.41;5071295;28;20471;-74
2022/10/16 07:41:17;;;;;;;4.77;2.47;;;;;;;19.13;68.21;97556.84;5066084;28;20189;-75
2022/10/16 07:43:50;;;;;;;3.77;2.37;;;;;;;19.15;68.36;97560.94;5071259;28;20196;-74
2022/10/16 07:46:16;;;;;;;3.47;2.67;;;;;;;19.19;68.33;97558.72;5072015;28;20449;-74
2022/10/16 07:48:45;;;;;;;9.97;2.80;;;;;;;19.25;68.14;97560.56;5072278;28;20455;-74
2022/10/16 07:51:11;;;;;;;7.27;2.47;;;;;;;19.27;68.27;97563.84;5066788;28;20848;-74
2022/10/16 07:53:36;;;;;;;4.83;2.10;;;;;;;19.30;68.07;97575.91;5049973;28;20424;-75
2022/10/16 07:56:05;;;;;;;6.23;2.30;;;;;;;19.32;68.29;97580.03;5072758;28;20237;-74
2022/10/16 07:58:31;;;;;;;4.73;2.60;;;;;;;19.34;68.14;97575.31;5069443;28;20234;-73
2022/10/16 08:00:57;;;;;;;9.70;2.93;;;;;;;19.36;68.41;97572.47;5072649;28;20428;-75
2022/10/16 08:03:24;;;;;;;8.40;2.97;;;;;;;19.38;68.93;97574.91;5072028;28;20420;-75
2022/10/16 08:05:50;;;;;;;5.00;2.73;;;;;;;19.41;68.83;97572.69;5072092;28;20444;-74
2022/10/16 08:08:17;;;;;;;9.43;2.67;;;;;;;19.45;69.02;97576.59;5071015;28;20432;-75
2022/10/16 08:10:43;;;;;;;5.43;3.07;;;;;;;19.52;69.14;97583.78;5072592;28;20214;-75
2022/10/16 08:13:09;;;;;;;4.73;2.90;;;;;;;19.56;69.20;97577.84;5071077;28;20800;-74
2022/10/16 08:15:34;;;;;;;4.50;2.27;;;;;;;19.61;68.74;97577.25;5071975;28;20646;-74
2022/10/16 08:18:01;;;;;;;2.20;2.03;;;;;;;19.69;68.28;97577.03;5069311;28;20610;-74
2022/10/16 08:20:28;;;;;;;2.90;2.50;;;;;;;19.83;68.45;97582.38;5063972;28;20262;-73
2022/10/16 08:22:54;;;;;;;2.47;1.87;;;;;;;19.88;66.55;97577.31;5066877;28;20424;-74
2022/10/16 08:25:21;;;;;;;8.63;2.07;;;;;;;20.03;66.36;97579.78;5071442;28;20805;-73
2022/10/16 08:27:46;;;;;;;1.83;1.50;;;;;;;20.02;63.64;97591.44;5065667;28;20193;-75
2022/10/16 08:30:12;;;;;;;5.67;1.13;;;;;;;20.16;63.09;97595.75;5071896;28;20432;-75
2022/10/16 08:32:38;;;;;;;1.30;1.20;;;;;;;20.33;63.05;97598.81;5071922;28;20235;-75
2022/10/16 08:35:03;;;;;;;2.00;1.60;;;;;;;20.45;62.61;97601.69;5061540;28;20462;-75
2022/10/16 08:37:30;;;;;;;3.10;1.50;;;;;;;20.54;62.38;97610.28;5061646;28;20692;-75
2022/10/16 08:39:56;;;;;;;3.17;1.43;;;;;;;20.56;61.33;97595.72;5069599;28;20182;-74
2022/10/16 08:42:30;;;;;;;2.73;1.60;;;;;;;20.61;61.03;97608.41;5069234;28;20443;-73
2022/10/16 08:45:08;;;;;;;1.60;1.50;;;;;;;20.61;60.55;97608.41;5071581;28;20557;-75
2022/10/16 08:47:59;;;;;;;2.50;1.40;;;;;;;20.63;60.33;97608.19;5069781;28;20435;-73
2022/10/16 08:50:27;;;;;;;1.50;1.40;;;;;;;20.67;60.64;97610.22;5060777;28;20510;-74
2022/10/16 08:52:54;;;;;;;1.90;1.63;;;;;;;20.68;60.33;97611.06;5069897;28;20432;-74
2022/10/16 08:55:28;;;;;;;3.37;1.80;;;;;;;20.68;60.51;97608.41;5066192;28;20440;-75
2022/10/16 08:57:54;;;;;;;9.70;1.67;;;;;;;20.71;60.54;97616.00;5063197;28;20459;-75
2022/10/16 09:00:20;;;;;;;2.80;1.60;;;;;;;20.76;60.84;97618.06;5071133;28;20432;-74
2022/10/16 09:03:04;;;;;;;4.30;1.43;;;;;;;20.82;60.41;97614.56;5070395;28;20197;-74
2022/10/16 09:06:00;;;;;;;9.93;1.83;;;;;;;20.90;60.29;97625.00;5070149;28;20518;-75
2022/10/16 09:08:28;;;;;;;8.90;1.70;;;;;;;21.02;60.09;97620.66;5069636;28;20944;-74
2022/10/16 09:11:10;;;;;;;5.57;1.90;;;;;;;21.13;59.67;97618.38;5070270;28;20428;-74
2022/10/16 09:13:48;;;;;;;2.10;1.33;;;;;;;21.36;59.26;97617.06;5061350;28;20490;-74
2022/10/16 09:16:26;;;;;;;5.53;1.70;;;;;;;21.58;58.65;97607.72;5070421;28;20448;-75
2022/10/16 09:19:02;;;;;;;3.07;1.30;;;;;;;21.83;58.42;97614.19;5069836;28;20475;-74
2022/10/16 09:21:33;;;;;;;6.00;1.70;;;;;;;22.22;56.91;97628.28;5058235;28;20445;-73
2022/10/16 09:24:00;;;;;;;4.83;1.30;;;;;;;22.40;56.24;97630.19;5069247;28;20428;-74
2022/10/16 09:26:25;;;;;;;2.83;1.60;;;;;;;22.52;55.45;97641.00;5068510;28;20507;-73
2022/10/16 09:28:54;;;;;;;1.50;1.30;;;;;;;22.67;55.67;97635.34;5070623;28;20499;-74
2022/10/16 09:31:22;;;;;;;4.33;1.53;;;;;;;22.73;55.08;97626.41;5070188;28;20194;-75
2022/10/16 09:33:51;;;;;;;2.90;1.53;;;;;;;23.33;54.29;97624.16;5070572;28;20494;-74
2022/10/16 09:36:18;;;;;;;3.47;1.40;;;;;;;23.88;51.90;97636.63;5070196;28;20535;-74
2022/10/16 09:38:43;;;;;;;4.00;1.40;;;;;;;23.86;49.92;97630.66;5068640;28;20521;-74
2022/10/16 09:41:15;;;;;;;7.97;1.30;;;;;;;23.79;50.30;97633.44;5064434;28;20832;-74
2022/10/16 09:44:00;;;;;;;1.40;1.30;;;;;;;23.72;50.42;97630.84;5069536;28;20186;-74
2022/10/16 09:46:28;;;;;;;2.73;1.30;;;;;;;24.14;50.59;97639.97;5068624;28;20606;-74
2022/10/16 09:48:56;;;;;;;3.00;1.57;;;;;;;24.51;48.71;97639.78;5070098;28;20907;-74
2022/10/16 09:51:27;;;;;;;6.90;1.97;;;;;;;24.89;47.16;97633.19;5061635;28;20442;-74
2022/10/16 09:53:59;;;;;;;8.30;1.50;;;;;;;25.07;47.38;97632.22;5069748;28;20424;-73
2022/10/16 09:56:32;;;;;;;3.67;1.20;;;;;;;25.14;47.12;97632.09;5068586;28;20458;-74
2022/10/16 09:59:00;;;;;;;6.73;1.40;;;;;;;24.92;46.94;97632.72;5070997;28;20421;-74
2022/10/16 10:01:30;;;;;;;12.50;1.40;;;;;;;25.09;46.41;97630.13;5057442;28;20485;-73
2022/10/16 10:04:01;;;;;;;3.00;1.33;;;;;;;25.32;45.73;97638.38;5062344;28;20437;-74
2022/10/16 10:06:33;;;;;;;3.40;1.43;;;;;;;25.40;45.61;97644.16;5067406;28;20521;-75
2022/10/16 10:09:04;;;;;;;3.13;1.50;;;;;;;25.29;44.63;97648.50;5060171;28;20428;-72
2022/10/16 10:11:40;;;;;;;3.90;1.53;;;;;;;25.26;44.67;97646.28;5070282;28;20435;-74
2022/10/16 10:14:17;;;;;;;1.80;1.50;;;;;;;25.11;45.01;97649.47;5070116;28;20450;-73
2022/10/16 10:16:42;;;;;;;3.83;1.53;;;;;;;25.15;44.89;97655.97;5068396;28;20502;-74
2022/10/16 10:19:22;;;;;;;1.50;1.40;;;;;;;25.55;45.11;97651.72;5070117;28;20515;-75
2022/10/16 10:21:48;;;;;;;1.80;1.70;;;;;;;25.75;44.71;97648.63;5054661;28;20186;-74
2022/10/16 10:24:18;;;;;;;2.60;1.10;;;;;;;25.79;43.93;97654.31;5068917;28;20915;-74
2022/10/16 10:26:49;;;;;;;3.17;1.33;;;;;;;25.81;44.31;97644.16;5061381;28;20752;-74
2022/10/16 10:30:07;;;;;;;4.50;1.97;;;;;;;25.86;43.86;97649.63;5069703;28;20799;-75
2022/10/16 10:32:45;;;;;;;3.93;1.50;;;;;;;25.92;43.82;97643.28;5054589;28;20459;-74
2022/10/16 10:35:15;;;;;;;1.70;1.07;;;;;;;25.90;44.21;97649.94;5059154;28;20492;-75
2022/10/16 10:38:06;;;;;;;3.53;1.27;;;;;;;25.81;43.45;97646.84;5066993;28;20553;-74
2022/10/16 10:40:59;;;;;;;1.40;1.30;;;;;;;25.83;43.63;97650.13;5066360;28;20441;-74
2022/10/16 10:43:30;;;;;;;3.50;1.40;;;;;;;26.01;43.40;97653.63;5060673;28;20416;-75
2022/10/16 10:46:03;;;;;;;2.70;1.20;;;;;;;26.00;42.97;97660.88;5069120;28;20449;-74
2022/10/16 10:49:01;;;;;;;1.83;1.30;;;;;;;26.51;42.20;97650.19;5068808;28;20576;-74
2022/10/16 10:51:44;;;;;;;2.50;1.60;;;;;;;27.10;41.46;97653.47;5066085;28;20779;-74
2022/10/16 10:54:16;;;;;;;1.70;1.60;;;;;;;27.69;40.19;97646.66;5065395;28;20459;-75
2022/10/16 10:56:47;;;;;;;3.60;1.03;;;;;;;28.09;38.76;97650.88;5071493;28;20452;-75
2022/10/16 10:59:36;;;;;;;2.30;1.33;;;;;;;28.51;38.11;97649.31;5064573;28;20421;-75
2022/10/16 11:02:10;;;;;;;1.90;1.53;;;;;;;28.93;37.46;97647.72;5073660;28;20431;-75
2022/10/16 11:04:54;;;;;;;1.33;1.00;;;;;;;29.30;36.73;97643.34;5072097;28;20425;-74
2022/10/16 11:07:25;;;;;;;1.30;1.20;;;;;;;29.28;35.58;97644.41;5062164;28;20420;-74
2022/10/16 11:09:54;;;;;;;5.60;1.90;;;;;;;29.60;36.05;97649.97;5068127;28;20756;-74
2022/10/16 11:12:29;;;;;;;1.30;1.20;;;;;;;29.47;35.69;97648.56;5072123;28;20451;-76
2022/10/16 11:15:16;;;;;;;8.70;2.13;;;;;;;29.42;35.95;97641.25;5072011;28;20536;-75
2022/10/16 11:17:48;;;;;;;5.50;2.27;;;;;;;29.26;36.20;97632.25;5071720;28;20468;-75
2022/10/16 11:20:22;;;;;;;4.37;1.37;;;;;;;28.97;36.54;97643.44;5066257;28;20425;-75
2022/10/16 11:22:56;;;;;;;2.33;1.10;;;;;;;28.59;37.11;97639.94;5067760;28;20498;-75
2022/10/16 11:25:30;;;;;;;3.83;1.37;;;;;;;28.35;36.83;97651.88;5072590;28;20441;-73
2022/10/16 11:28:10;;;;;;;5.13;1.30;;;;;;;28.14;37.30;97647.41;5072424;28;20417;-74
2022/10/16 11:30:46;;;;;;;3.67;1.20;;;;;;;28.14;37.44;97647.41;5073296;28;20763;-73
2022/10/16 11:33:18;;;;;;;4.27;1.50;;;;;;;27.99;38.13;97656.94;5071770;28;20417;-75
2022/10/16 11:35:57;;;;;;;3.57;1.17;;;;;;;28.29;37.61;97650.25;5072060;28;20448;-76
2022/10/16 11:38:33;;;;;;;9.30;1.47;;;;;;;28.49;37.19;97633.41;5069204;28;20463;-73
2022/10/16 11:41:18;;;;;;;2.80;1.07;;;;;;;28.54;36.86;97635.34;5067571;28;20428;-74
2022/10/16 11:44:06;;;;;;;3.30;1.20;;;;;;;28.69;36.48;97633.81;5059201;28;20478;-76